createdAt,value
2022-12-31T00:02:07.634Z,10.42
2022-12-31T00:07:07.515Z,10.45
2022-12-31T00:12:07.696Z,10.42
2022-12-31T00:17:07.580Z,10.41
2022-12-31T00:22:07.533Z,10.41
2022-12-31T00:27:07.647Z,10.41
2022-12-31T00:32:07.739Z,10.37
2022-12-31T00:37:07.569Z,10.38
2022-12-31T00:42:07.600Z,10.38
2022-12-31T00:47:07.781Z,10.34
2022-12-31T00:52:07.595Z,10.34
2022-12-31T00:57:07.716Z,10.32
2022-12-31T01:02:07.740Z,10.27
2022-12-31T01:07:07.568Z,10.24
2022-12-31T01:12:07.869Z,10.19
2022-12-31T01:17:07.808Z,10.14
2022-12-31T01:22:07.651Z,10.12
2022-12-31T01:27:07.529Z,10.1
2022-12-31T01:32:08.002Z,10.09
2022-12-31T01:37:07.572Z,10.09
2022-12-31T01:42:07.620Z,10.08
2022-12-31T01:47:08.436Z,10.09
2022-12-31T01:52:10.933Z,10.06
2022-12-31T01:57:07.811Z,10.06
2022-12-31T02:02:07.916Z,10.04
2022-12-31T02:07:08.790Z,10.01
2022-12-31T02:12:07.717Z,9.99
2022-12-31T02:17:12.108Z,9.98
2022-12-31T02:22:11.585Z,9.96
2022-12-31T02:27:10.811Z,9.93
2022-12-31T02:32:12.541Z,9.91
2022-12-31T02:37:08.648Z,9.9
2022-12-31T02:42:07.803Z,9.89
2022-12-31T02:47:17.304Z,9.89
2022-12-31T02:52:10.526Z,9.91
2022-12-31T02:57:10.255Z,9.91
2022-12-31T03:02:19.590Z,9.92
2022-12-31T03:07:09.478Z,9.91
2022-12-31T03:12:20.328Z,9.91
2022-12-31T03:17:07.573Z,9.92
2022-12-31T03:22:18.814Z,9.92
2022-12-31T03:27:07.512Z,9.93
2022-12-31T03:32:07.664Z,9.95
2022-12-31T03:37:07.681Z,9.95
2022-12-31T03:42:07.602Z,9.96
2022-12-31T03:47:07.712Z,9.97
2022-12-31T03:52:08.673Z,9.97
2022-12-31T03:57:07.421Z,9.96
2022-12-31T04:02:08.271Z,9.95
2022-12-31T04:07:07.646Z,9.92
2022-12-31T04:12:07.717Z,9.9
2022-12-31T04:17:07.612Z,9.85
2022-12-31T04:22:07.535Z,9.84
2022-12-31T04:27:08.139Z,9.81
2022-12-31T04:32:07.680Z,9.78
2022-12-31T04:37:07.643Z,9.74
2022-12-31T04:42:07.657Z,9.72
2022-12-31T04:47:07.508Z,9.69
2022-12-31T04:52:07.499Z,9.68
2022-12-31T04:57:07.557Z,9.64
2022-12-31T05:02:07.723Z,9.62
2022-12-31T05:07:07.723Z,9.61
2022-12-31T05:12:07.858Z,9.58
2022-12-31T05:17:07.696Z,9.56
2022-12-31T05:22:18.849Z,9.56
2022-12-31T05:27:07.757Z,9.55
2022-12-31T05:32:07.850Z,9.55
2022-12-31T05:37:07.856Z,9.53
2022-12-31T05:42:07.920Z,9.52
2022-12-31T05:47:08.942Z,9.52
2022-12-31T05:52:09.698Z,9.52
2022-12-31T05:57:07.548Z,9.51
2022-12-31T06:02:07.603Z,9.5
2022-12-31T06:07:07.470Z,9.49
2022-12-31T06:12:07.839Z,9.5
2022-12-31T06:17:07.649Z,9.5
2022-12-31T06:22:09.999Z,9.48
2022-12-31T06:27:10.239Z,9.5
2022-12-31T06:32:08.046Z,9.5
2022-12-31T06:37:07.440Z,9.51
2022-12-31T06:42:07.770Z,9.52
2022-12-31T06:47:07.454Z,9.53
2022-12-31T06:52:08.167Z,9.56
2022-12-31T06:57:08.290Z,9.58
2022-12-31T07:02:18.455Z,9.6
2022-12-31T07:07:11.265Z,9.62
2022-12-31T07:12:16.930Z,9.65
2022-12-31T07:17:38.595Z,9.72
2022-12-31T07:25:25.771Z,9.94
2022-12-31T07:28:52.075Z,9.93
2022-12-31T07:33:51.914Z,10.07
2022-12-31T07:38:52.442Z,10.17
2022-12-31T07:43:52.579Z,10.34
2022-12-31T07:48:45.666Z,10.46
2022-12-31T07:53:48.283Z,10.65
2022-12-31T07:58:53.223Z,10.79
2022-12-31T08:03:53.043Z,10.83
2022-12-31T08:08:53.882Z,10.86
2022-12-31T08:13:48.857Z,10.91
2022-12-31T08:18:45.571Z,10.94
2022-12-31T08:23:51.316Z,11
2022-12-31T08:29:01.572Z,11.05
2022-12-31T08:33:51.443Z,11.06
2022-12-31T08:38:51.104Z,11.03
2022-12-31T08:43:52.125Z,11.11
2022-12-31T08:48:48.171Z,11.09
2022-12-31T08:53:45.760Z,11.12
2022-12-31T08:58:51.751Z,11.12
2022-12-31T09:03:58.832Z,11.14
2022-12-31T09:08:51.737Z,11.2
2022-12-31T09:13:52.043Z,11.23
2022-12-31T09:18:46.303Z,11.26
2022-12-31T09:23:45.893Z,11.3
2022-12-31T09:28:53.741Z,11.35
2022-12-31T09:33:52.551Z,11.4
2022-12-31T09:38:52.188Z,11.45
2022-12-31T09:44:05.593Z,11.54
2022-12-31T09:49:02.225Z,11.54
2022-12-31T09:53:53.576Z,11.59
2022-12-31T09:58:47.801Z,11.59
2022-12-31T10:04:00.634Z,11.61
2022-12-31T10:08:53.715Z,11.67
2022-12-31T10:13:50.367Z,11.72
2022-12-31T10:18:54.008Z,11.78
2022-12-31T10:23:56.615Z,11.79
2022-12-31T10:28:53.870Z,11.75
2022-12-31T10:33:47.887Z,11.76
2022-12-31T10:38:56.299Z,11.71
2022-12-31T10:44:00.425Z,11.66
2022-12-31T10:49:05.687Z,11.63
2022-12-31T10:53:54.630Z,11.65
2022-12-31T10:58:54.375Z,11.72
2022-12-31T11:04:03.185Z,11.79
2022-12-31T11:08:57.190Z,11.88
2022-12-31T11:13:55.361Z,11.93
2022-12-31T11:18:51.717Z,11.97
2022-12-31T11:23:52.690Z,11.98
2022-12-31T11:33:53.024Z,11.96
2022-12-31T11:38:49.074Z,11.95
2022-12-31T11:43:52.741Z,11.94
2022-12-31T11:48:48.839Z,11.95
2022-12-31T11:53:57.428Z,11.94
2022-12-31T11:58:45.983Z,11.95
2022-12-31T12:03:46.242Z,11.95
2022-12-31T12:08:49.447Z,11.96
2022-12-31T12:13:45.220Z,11.94
2022-12-31T12:18:49.247Z,11.88
2022-12-31T12:23:46.349Z,11.87
2022-12-31T12:28:52.181Z,11.82
2022-12-31T12:33:49.757Z,11.78
2022-12-31T12:53:04.880Z,11.81
2022-12-31T13:04:33.027Z,11.89
2022-12-31T13:08:10.718Z,11.85
2022-12-31T13:13:50.323Z,12.01
2022-12-31T13:16:51.252Z,11.93
2022-12-31T13:21:55.728Z,11.98
2022-12-31T13:26:52.648Z,12.02
2022-12-31T13:31:49.434Z,12.06
2022-12-31T13:36:50.589Z,12.13
2022-12-31T13:41:56.243Z,12.18
2022-12-31T13:46:52.288Z,12.14
2022-12-31T13:51:52.795Z,12.16
2022-12-31T13:56:49.917Z,12.19
2022-12-31T14:01:53.289Z,12.23
2022-12-31T14:06:55.763Z,12.22
2022-12-31T14:12:01.971Z,12.18
2022-12-31T14:16:55.773Z,12.18
2022-12-31T14:21:54.150Z,12.19
2022-12-31T14:26:51.960Z,12.19
2022-12-31T14:31:58.753Z,12.15
2022-12-31T14:36:55.604Z,12.14
2022-12-31T14:42:01.707Z,12.11
2022-12-31T14:46:56.674Z,12.07
2022-12-31T14:51:48.959Z,12.06
2022-12-31T14:56:51.119Z,12.02
2022-12-31T15:01:52.107Z,11.99
2022-12-31T15:06:55.473Z,11.97
2022-12-31T15:12:00.937Z,11.95
2022-12-31T15:16:54.347Z,11.9
2022-12-31T15:21:59.111Z,11.89
2022-12-31T15:26:51.648Z,11.86
2022-12-31T15:31:52.057Z,11.85
2022-12-31T15:36:55.647Z,11.87
2022-12-31T15:42:35.473Z,11.88
2022-12-31T15:46:49.242Z,11.9
2022-12-31T15:51:52.409Z,11.9
2022-12-31T15:56:52.379Z,11.91
2022-12-31T16:01:49.602Z,11.88
2022-12-31T16:06:51.208Z,11.88
2022-12-31T16:11:48.879Z,11.87
2022-12-31T16:16:55.401Z,11.87
2022-12-31T16:21:58.453Z,11.86
2022-12-31T16:26:50.149Z,11.86
2022-12-31T16:31:49.559Z,11.83
2022-12-31T16:36:57.999Z,11.85
2022-12-31T16:41:49.005Z,11.86
2022-12-31T16:46:49.176Z,11.86
2022-12-31T16:51:49.597Z,11.83
2022-12-31T16:56:48.951Z,11.86
2022-12-31T17:01:49.296Z,11.83
2022-12-31T17:06:51.187Z,11.83
2022-12-31T17:11:56.216Z,11.8
2022-12-31T17:17:02.195Z,11.78
2022-12-31T17:21:50.619Z,11.77
2022-12-31T17:26:49.067Z,11.77
2022-12-31T17:31:59.029Z,11.74
2022-12-31T17:36:56.748Z,11.73
2022-12-31T17:41:51.077Z,11.72
2022-12-31T17:46:53.516Z,11.7
2022-12-31T17:51:48.581Z,11.7
2022-12-31T17:56:49.151Z,11.71
2022-12-31T18:01:49.416Z,11.69
2022-12-31T18:06:48.716Z,11.66
2022-12-31T18:11:49.064Z,11.66
2022-12-31T18:16:48.821Z,11.65
2022-12-31T18:21:50.050Z,11.62
2022-12-31T18:26:48.565Z,11.62
2022-12-31T18:31:49.898Z,11.61
2022-12-31T18:36:48.946Z,11.57
2022-12-31T18:41:50.979Z,11.58
2022-12-31T18:46:48.588Z,11.57
2022-12-31T18:51:52.300Z,11.54
2022-12-31T18:56:55.262Z,11.54
2022-12-31T19:01:51.989Z,11.54
2022-12-31T19:06:48.658Z,11.54
2022-12-31T19:11:48.840Z,11.54
2022-12-31T19:16:49.879Z,11.51
2022-12-31T19:21:48.856Z,11.51
2022-12-31T19:26:48.591Z,11.5
2022-12-31T19:31:48.658Z,11.52
2022-12-31T19:36:48.953Z,11.51
2022-12-31T19:41:56.557Z,11.53
2022-12-31T19:46:49.011Z,11.56
2022-12-31T19:51:48.781Z,11.58
2022-12-31T19:56:48.679Z,11.56
2022-12-31T20:01:49.713Z,11.58
2022-12-31T20:06:48.648Z,11.58
2022-12-31T20:11:48.640Z,11.59
2022-12-31T20:16:50.052Z,11.61
2022-12-31T20:21:48.899Z,11.62
2022-12-31T20:26:48.770Z,11.61
2022-12-31T20:31:48.583Z,11.63
2022-12-31T20:36:48.722Z,11.66
2022-12-31T20:41:50.217Z,11.64
2022-12-31T20:46:48.660Z,11.64
2022-12-31T20:51:52.088Z,11.65
2022-12-31T20:56:48.671Z,11.68
2022-12-31T21:02:20.066Z,11.63
2022-12-31T21:06:52.026Z,11.66
2022-12-31T21:11:59.998Z,11.72
2022-12-31T21:16:48.629Z,11.71
2022-12-31T21:21:51.935Z,11.71
2022-12-31T21:26:48.612Z,11.73
2022-12-31T21:31:49.707Z,11.75
2022-12-31T21:36:48.594Z,11.78
2022-12-31T21:41:55.198Z,11.79
2022-12-31T21:47:24.862Z,11.82
2022-12-31T21:51:59.852Z,11.87
2022-12-31T21:56:48.693Z,11.94
2022-12-31T22:02:00.014Z,11.94
2022-12-31T22:06:48.676Z,11.96
2022-12-31T22:11:48.732Z,12.02
2022-12-31T22:16:48.519Z,12.01
2022-12-31T22:21:48.657Z,12.04
2022-12-31T22:26:48.725Z,12.05
2022-12-31T22:31:49.839Z,12.06
2022-12-31T22:36:48.471Z,12.05
2022-12-31T22:41:48.701Z,12.06
2022-12-31T22:46:49.442Z,12.06
2022-12-31T22:51:57.578Z,12.04
2022-12-31T22:56:48.685Z,12.06
2022-12-31T23:01:48.611Z,12.02
2022-12-31T23:06:48.767Z,11.96
2022-12-31T23:11:48.777Z,11.88
2022-12-31T23:16:59.934Z,11.85
2022-12-31T23:21:59.928Z,11.8
2022-12-31T23:26:48.782Z,11.79
2022-12-31T23:31:48.636Z,11.81
2022-12-31T23:36:48.798Z,11.78
2022-12-31T23:41:48.615Z,11.82
2022-12-31T23:46:48.566Z,11.83
2022-12-31T23:51:48.537Z,11.87
2022-12-31T23:56:48.641Z,11.91
